Have a Safe July 4th! 

Flight Track Log - Related Links

Times and Time Zones

All times are in EDT time to prevent confusion due to time zone crossing. See the CRK276 flight status page for this flight to view local times or setup timezone preferences in your user account.

Time Position Orientation Groundspeed Altitude Reporting Facility
EDT Latitude Longitude Course Direction KTS MPH feet Rate Location/Type
Tue 09:23:03 AM 23.4610 110.3780 102° East 547 629 35,900  Level FlightAware ADS-B
Tue 09:23:53 AM 23.4340 110.5110 102° East 542 624 35,200 -457 Descending FlightAware ADS-B
Tue 09:24:48 AM 23.4040 110.6510 103° East 538 619 35,100 -67 Descending FlightAware ADS-B
Tue 09:25:23 AM 23.3830 110.7530 103° East 537 618 35,100  Level FlightAware ADS-B
Tue 09:26:03 AM 23.3610 110.8560 103° East 537 618 35,100  Level FlightAware ADS-B
Tue 09:26:48 AM 23.3360 110.9750 103° East 537 618 35,100  Level FlightAware ADS-B
Tue 09:27:38 AM 23.3080 111.1060 103° East 538 619 35,100 -200 Level FlightAware ADS-B
Tue 09:28:18 AM 23.2860 111.2110 103° East 536 617 34,800 -675 Descending FlightAware ADS-B
Tue 09:28:58 AM 23.2650 111.3120 103° East 537 618 34,200 -975 Descending FlightAware ADS-B
Tue 09:29:38 AM 23.2430 111.4190 103° East 536 617 33,500 -776 Descending FlightAware ADS-B
Tue 09:30:23 AM 23.2160 111.5410 104° East 525 604 33,100 -282 Descending FlightAware ADS-B
Tue 09:31:03 AM 23.1670 111.6220 123° Southeast 456 525 33,100  Level FlightAware ADS-B
Tue 09:31:18 AM 23.1430 111.6400 145° Southeast 426 490 33,100  Level FlightAware ADS-B
Tue 09:31:58 AM 23.0750 111.6470 175° South 346 398 33,100  Level FlightAware ADS-B
Tue 09:32:23 AM 23.0450 111.6210 219° Southwest 302 348 33,100  Level FlightAware ADS-B
Tue 09:32:38 AM 23.0380 111.6030 247° West 294 338 33,100  Level FlightAware ADS-B
Tue 09:32:53 AM 23.0390 111.5830 273° West 292 336 33,100 -200 Level FlightAware ADS-B
Tue 09:33:38 AM 23.0850 111.5350 316° Northwest 336 387 32,900 -327 Descending FlightAware ADS-B
Tue 09:33:48 AM 23.1000 111.5330 353° North 358 412 32,800 -933 Descending FlightAware ADS-B
Tue 09:34:23 AM 23.1670 111.5600 20° North 437 503 32,200 -867 Descending FlightAware ADS-B
Tue 09:35:18 AM 23.2190 111.6700 63° Northeast 478 550 31,500 -695 Descending FlightAware ADS-B
Tue 09:35:58 AM 23.2160 111.7650 92° East 519 597 31,100 -282 Descending FlightAware ADS-B
Tue 09:36:43 AM 23.1910 111.8880 102° East 525 604 31,100  Level FlightAware ADS-B
Tue 09:37:23 AM 23.1700 111.9910 102° East 522 601 31,100  Level FlightAware ADS-B
Tue 09:38:03 AM 23.1500 112.0910 102° East 521 600 31,100  Level FlightAware ADS-B
Tue 09:38:48 AM 23.1240 112.2050 104° East 501 577 31,100  Level FlightAware ADS-B
Tue 09:39:18 AM 23.0880 112.2600 125° Southeast 447 514 31,100  Level FlightAware ADS-B
Tue 09:39:43 AM 23.0450 112.2840 153° Southeast 393 452 31,100  Level FlightAware ADS-B
Tue 09:39:53 AM 23.0270 112.2860 174° South 367 422 31,100  Level FlightAware ADS-B
Tue 09:40:13 AM 22.9950 112.2770 195° South 323 372 31,100  Level FlightAware ADS-B
Tue 09:40:38 AM 22.9740 112.2490 231° Southwest 286 329 31,100  Level FlightAware ADS-B
Tue 09:40:53 AM 22.9720 112.2290 264° West 275 316 31,100  Level FlightAware ADS-B
Tue 09:41:03 AM 22.9760 112.2160 288° West 276 318 31,100  Level FlightAware ADS-B
Tue 09:41:38 AM 23.0110 112.1880 324° Northwest 320 368 31,100  Level FlightAware ADS-B
Tue 09:42:18 AM 23.0810 112.2140 19° North 412 474 31,100  Level FlightAware ADS-B
Tue 09:42:33 AM 23.0970 112.2370 53° Northeast 440 506 31,100  Level FlightAware ADS-B
Tue 09:42:48 AM 23.1090 112.2710 69° East 449 517 31,100  Level FlightAware ADS-B
Tue 09:43:28 AM 23.0950 112.3570 100° East 431 496 31,100  Level FlightAware ADS-B
Tue 09:43:43 AM 23.0790 112.3780 130° Southeast 410 472 31,100  Level FlightAware ADS-B
Tue 09:43:58 AM 23.0540 112.3950 148° Southeast 387 445 31,100  Level FlightAware ADS-B
Tue 09:44:18 AM 23.0230 112.4020 168° South 350 403 31,100  Level FlightAware ADS-B
Tue 09:45:08 AM 22.9420 112.4350 159° South 425 489 31,100  Level FlightAware ADS-B
Tue 09:45:48 AM 22.8910 112.5020 130° Southeast 427 491 31,100  Level FlightAware ADS-B
Tue 09:46:28 AM 22.8420 112.5660 130° Southeast 427 491 31,100  Level FlightAware ADS-B
Tue 09:47:13 AM 22.7850 112.6420 129° Southeast 427 491 31,100  Level FlightAware ADS-B
Tue 09:47:53 AM 22.7340 112.7030 132° Southeast 412 474 31,100  Level FlightAware ADS-B
Tue 09:48:08 AM 22.7080 112.7170 154° Southeast 379 436 31,100 -1,200 Level FlightAware ADS-B
Tue 09:48:48 AM 22.6390 112.7390 164° South 372 428 30,000 -1,412 Descending FlightAware ADS-B
Tue 09:49:33 AM 22.5680 112.7600 165° South 367 422 29,100 -1,412 Descending FlightAware ADS-B
Tue 09:50:13 AM 22.5050 112.7760 167° South 362 417 28,000 -1,800 Descending FlightAware ADS-B
Tue 09:50:53 AM 22.4360 112.7920 168° South 354 407 26,700 -1,976 Descending FlightAware ADS-B
Tue 09:51:38 AM 22.3730 112.8410 144° Southeast 394 453 25,200 -1,389 Descending FlightAware ADS-B
Tue 09:52:28 AM 22.3280 112.9180 122° Southeast 393 452 24,500 -467 Descending FlightAware ADS-B
Tue 09:53:08 AM 22.2960 112.9750 121° Southeast 393 452 24,500  Level FlightAware ADS-B
Tue 09:53:58 AM 22.2550 113.0460 122° Southeast 393 452 24,500  Level FlightAware ADS-B
Tue 09:54:38 AM 22.2220 113.1020 122° Southeast 393 452 24,500  Level FlightAware ADS-B
Tue 09:55:18 AM 22.1890 113.1590 122° Southeast 393 452 24,500  Level FlightAware ADS-B
Tue 09:55:58 AM 22.1560 113.2150 122° Southeast 393 452 24,500 -461 Level FlightAware ADS-B
Tue 09:58:00 AM 22.2152 113.4838 77° East  Level Estimated
Tue 09:59:00 AM 22.2441 113.6161 77° East  Level Estimated
Tue 10:00:00 AM 22.2729 113.7485 77° East  Level Estimated
Tue 10:01:00 AM 22.3016 113.8809 77° East  Level Estimated
Tue 10:02:00 AM 22.3089 113.9146 77° East  Level Estimated
Tue 10:03:00 AM 22.3089 113.9146 110° East  Level Estimated
Tue 10:04:00 AM 22.3089 113.9146 110° East  Level Estimated
Tue 10:05:00 AM 22.3089 113.9146 110° East  Level Estimated
Tue 10:06:00 AM 22.3089 113.9146 110° East  Level Estimated
Tue 10:07:00 AM 22.3089 113.9146 110° East  Level Estimated
Tue 10:08:00 AM 22.3089 113.9146 110° East  Level Estimated
Tue 10:09:00 AM 22.3089 113.9146 110° East  Level Estimated
Tue 10:10:00 AM 22.3089 113.9146 110° East  Level Estimated
Tue 10:11:00 AM 22.3089 113.9146 110° East  Level Estimated
Tue 10:12:00 AM 22.3089 113.9146 110° East  Level Estimated
Tue 10:13:00 AM 22.3089 113.9146 110° East  Level Estimated
Tue 10:14:00 AM 22.3089 113.9146 110° East  Level Estimated
Tue 10:15:00 AM 22.3089 113.9146 110° East  Level Estimated
Tue 10:16:00 AM 22.3089 113.9146 110° East  Level Estimated
Tue 10:17:00 AM 22.3089 113.9146 110° East  Level Estimated
Tue 10:18:00 AM 22.3089 113.9146 110° East  Level Estimated
Tue 10:19:00 AM 22.3089 113.9146 110° East  Level Estimated
Tue 10:20:00 AM 22.3089 113.9146 110° East  Level Estimated
Tue 10:21:00 AM 22.3089 113.9146 110° East  Level Estimated
Tue 10:22:00 AM 22.3089 113.9146 110° East  Level Estimated
Tue 10:23:00 AM 22.3089 113.9146 110° East  Level Estimated
Tue 10:24:00 AM 22.3089 113.9146 110° East  Level Estimated
Tue 10:25:00 AM 22.3089 113.9146 110° East  Level Estimated
Tue 10:26:00 AM 22.3089 113.9146 110° East  Level Estimated
Tue 10:27:00 AM 22.3089 113.9146 110° East  Level Estimated
Tue 10:28:00 AM 22.3089 113.9146 110° East  Level Estimated
Tue 10:29:00 AM 22.3089 113.9146 110° East  Level Estimated
Tue 10:30:00 AM 22.3089 113.9146 110° East  Level Estimated
Tue 10:31:00 AM 22.3089 113.9146 110° East  Level Estimated
Tue 10:32:00 AM 22.3089 113.9146 110° East  Level Estimated
Tue 10:33:00 AM 22.3089 113.9146 110° East  Level Estimated
Tue 10:34:00 AM 22.3089 113.9146 110° East  Level Estimated
Tue 10:35:00 AM 22.3089 113.9146 110° East  Level Estimated
Tue 10:36:00 AM 22.3089 113.9146 110° East  Level Estimated
Tue 10:37:00 AM 22.3089 113.9146 110° East  Level Estimated
Tue 10:38:00 AM 22.3089 113.9146 110° East  Level Estimated
Tue 10:39:00 AM 22.3089 113.9146 110° East  Level Estimated
Tue 10:40:00 AM 22.3089 113.9146 110° East  Level Estimated
Tue 10:41:00 AM 22.3089 113.9146 110° East  Level Estimated
Tue 10:42:00 AM 22.3089 113.9146 110° East  Level Estimated
Tue 10:43:00 AM 22.3089 113.9146 110° East  Level Estimated
Tue 10:44:00 AM 22.3089 113.9146 110° East  Level Estimated
Tue 10:45:00 AM 22.3089 113.9146 110° East  Level Estimated
Tue 10:46:00 AM 22.3089 113.9146 110° East  Level Estimated
Tue 10:47:00 AM 22.3089 113.9146 110° East  Level Estimated
Tue 10:47:08 AM 22.3000 113.8650 78° East 127 146 600  Level FlightAware ADS-B
Tue 10:47:43 AM 22.3080 113.8870 69° East 125 144 200 -686 Descending FlightAware ADS-B

Login

Don't have an account? Register now (free) for customized features, flight alerts, and more!